Flight Track Log - Related Links

Times and Time Zones

All times are in EDT time to prevent confusion due to time zone crossing. See the UAL538 flight status page for this flight to view local times or setup timezone preferences in your user account.

Time Position Orientation Groundspeed Altitude Reporting Facility
EDT Latitude Longitude Course Direction KTS MPH feet Rate Location/Type
Thu 07:35:49 PM 33.4333 -112.0333 20° North 150 173 2,200  Level Phoenix TRACON
Thu 07:37:01 PM 33.4333 -112.1167 270° West 203 234 3,800 1,805 Climbing Phoenix TRACON
Thu 07:38:00 PM 33.7488 -111.8615 15° North  Level FlightAware Approximate
Thu 07:38:02 PM 33.4667 -112.1667 309° West 243 280 6,200  Level Phoenix TRACON
Thu 07:39:00 PM 33.8553 -111.8186 20° North  Level FlightAware Approximate
Thu 07:39:02 PM 33.5333 -112.1167 32° Northeast 293 337 8,900  Level Phoenix TRACON
Thu 07:39:18 PM 33.5428 -112.1119 23° Northeast 287 330 9,200 1,714 Climbing Albuquerque Center
Thu 07:40:00 PM 33.9610 -111.7724 20° North  Level FlightAware Approximate
Thu 07:40:19 PM 33.6150 -112.0575 32° Northeast 306 352 11,100  Level Albuquerque Center
Thu 07:41:00 PM 34.0667 -111.7261 20° North  Level FlightAware Approximate
Thu 07:41:21 PM 33.7022 -111.9919 32° Northeast 369 425 12,700  Level Albuquerque Center
Thu 07:42:22 PM 33.8094 -111.9119 32° Northeast 380 437 14,800 1,805 Climbing Albuquerque Center
Thu 07:43:24 PM 33.9067 -111.8386 32° Northeast 408 470 16,400 1,403 Climbing Albuquerque Center
Thu 07:44:26 PM 34.0056 -111.7561 35° Northeast 422 486 17,700 1,171 Climbing Albuquerque Center
Thu 07:45:27 PM 34.0881 -111.6625 43° Northeast 451 519 18,800 1,366 Climbing Albuquerque Center
Thu 07:46:29 PM 34.1822 -111.5550 43° Northeast 466 536 20,500 1,463 Climbing Albuquerque Center
Thu 07:47:30 PM 34.3000 -111.4214 43° Northeast 480 552 21,800 1,073 Climbing Albuquerque Center
Thu 07:48:32 PM 34.4008 -111.3069 43° Northeast 493 567 22,700 927 Climbing Albuquerque Center
Thu 07:49:33 PM 34.5039 -111.1872 44° Northeast 508 585 23,700 878 Climbing Albuquerque Center
Thu 07:50:35 PM 34.6100 -111.0664 43° Northeast 518 596 24,500 871 Climbing Albuquerque Center
Thu 07:51:37 PM 34.7175 -110.9436 43° Northeast 524 603 25,500 976 Climbing Albuquerque Center
Thu 07:52:38 PM 34.8247 -110.8194 44° Northeast 530 610 26,500 1,171 Climbing Albuquerque Center
Thu 07:53:40 PM 34.9419 -110.6783 45° Northeast 531 611 27,900 1,463 Climbing Albuquerque Center
Thu 07:54:41 PM 35.0606 -110.5422 43° Northeast 526 605 29,500 1,317 Climbing Albuquerque Center
Thu 07:55:43 PM 35.1592 -110.4233 45° Northeast 521 600 30,600 780 Climbing Albuquerque Center
Thu 07:56:44 PM 35.2594 -110.3072 43° Northeast 519 597 31,100 244 Climbing Albuquerque Center
Thu 07:57:46 PM 35.3761 -110.1700 44° Northeast 519 597 31,100  Level Albuquerque Center
Thu 07:58:48 PM 35.4756 -110.0511 44° Northeast 520 598 31,100  Level Albuquerque Center
Thu 07:59:49 PM 35.5931 -109.9114 44° Northeast 524 603 31,100  Level Albuquerque Center
Thu 08:00:51 PM 35.6944 -109.7908 44° Northeast 527 606 31,100  Level Albuquerque Center
Thu 08:01:52 PM 35.7950 -109.6708 44° Northeast 527 606 31,100 -49 Level Albuquerque Center
Thu 08:02:54 PM 35.9117 -109.5300 44° Northeast 525 604 31,000  Descending Albuquerque Center
Thu 08:03:18 PM 35.9447 -109.4894 45° Northeast 525 604 31,100 837 Climbing Denver Center
Thu 08:04:20 PM 36.0631 -109.3475 44° Northeast 528 608 32,200 968 Climbing Denver Center
Thu 08:05:22 PM 36.1628 -109.2264 44° Northeast 521 600 33,100 1,113 Climbing Denver Center
Thu 08:06:24 PM 36.2781 -109.0856 45° Northeast 515 593 34,500 774 Climbing Denver Center
Thu 08:07:26 PM 36.3769 -108.9656 44° Northeast 512 589 34,700 290 Climbing Denver Center
Thu 08:08:28 PM 36.4764 -108.8425 45° Northeast 519 597 35,100 194 Climbing Denver Center
Thu 08:09:30 PM 36.5914 -108.7003 45° Northeast 519 597 35,100 -48 Level Denver Center
Thu 08:10:32 PM 36.6908 -108.5767 45° Northeast 523 602 35,000  Descending Denver Center
Thu 08:11:34 PM 36.8081 -108.4361 44° Northeast 524 603 35,100 48 Climbing Denver Center
Thu 08:12:36 PM 36.9083 -108.3133 44° Northeast 526 605 35,100  Level Denver Center
Thu 08:13:38 PM 37.0261 -108.1711 44° Northeast 527 606 35,100  Level Denver Center
Thu 08:14:40 PM 37.1264 -108.0472 45° Northeast 527 606 35,100 -48 Level Denver Center
Thu 08:15:42 PM 37.2431 -107.9019 45° Northeast 528 608 35,000  Descending Denver Center
Thu 08:16:44 PM 37.3444 -107.7778 44° Northeast 530 610 35,100 48 Climbing Denver Center
Thu 08:17:46 PM 37.4447 -107.6514 45° Northeast 532 612 35,100  Level Denver Center
Thu 08:18:48 PM 37.5592 -107.5069 45° Northeast 522 601 35,100 -48 Level Denver Center
Thu 08:19:50 PM 37.6589 -107.3858 44° Northeast 520 598 35,000 -48 Descending Denver Center
Thu 08:20:52 PM 37.7722 -107.2400 45° Northeast 520 598 35,000 48 Level Denver Center
Thu 08:21:54 PM 37.8792 -107.1050 45° Northeast 526 605 35,100 48 Climbing Denver Center
Thu 08:22:56 PM 37.9772 -106.9797 45° Northeast 525 604 35,100  Level Denver Center
Thu 08:23:58 PM 38.0919 -106.8342 45° Northeast 524 603 35,100  Level Denver Center
Thu 08:25:00 PM 38.1900 -106.7089 45° Northeast 523 602 35,100  Level Denver Center
Thu 08:26:02 PM 38.3031 -106.5631 45° Northeast 520 598 35,100 -339 Level Denver Center
Thu 08:27:04 PM 38.3903 -106.4500 45° Northeast 507 583 34,400 -1,113 Descending Denver Center
Thu 08:28:06 PM 38.4900 -106.3214 45° Northeast 511 588 32,800 -1,887 Descending Denver Center
Thu 08:29:08 PM 38.6086 -106.1647 46° Northeast 511 588 30,500 -2,032 Descending Denver Center
Thu 08:30:10 PM 38.7042 -106.0397 46° Northeast 510 587 28,600 -1,951 Descending Denver Center
Thu 08:31:11 PM 38.7939 -105.9211 46° Northeast 468 539 26,500 -2,195 Descending Denver Center
Thu 08:32:13 PM 38.8875 -105.7994 45° Northeast 433 498 24,100 -2,226 Descending Denver Center
Thu 08:33:15 PM 38.9664 -105.6928 46° Northeast 429 494 21,900 -1,897 Descending Denver Center
Thu 08:34:29 PM 39.0575 -105.5731 46° Northeast 421 484 19,800 -2,029 Descending Denver Center
Thu 08:35:31 PM 39.1444 -105.4547 47° Northeast 386 444 17,300 -1,694 Descending Denver Center
Thu 08:36:33 PM 39.2139 -105.3636 45° Northeast 348 400 16,300 -1,403 Descending Denver Center
Thu 08:37:35 PM 39.2853 -105.2767 43° Northeast 332 382 14,400 -1,161 Descending Denver Center
Thu 08:38:37 PM 39.3561 -105.2083 37° Northeast 320 368 13,900 -677 Descending Denver Center
Thu 08:39:39 PM 39.4364 -105.1436 32° Northeast 314 361 13,000 -435 Descending Denver Center
Thu 08:40:41 PM 39.5186 -105.1233 11° North 300 345 13,000  Level Denver Center
Thu 08:41:42 PM 39.6056 -105.1186 North 309 356 13,000  Level Denver Center
Thu 08:42:44 PM 39.6781 -105.1147 North 308 354 13,000 -290 Level Denver Center
Thu 08:43:46 PM 39.7617 -105.0744 20° North 264 304 12,400 -677 Descending Denver Center
Thu 08:44:48 PM 39.8122 -105.0194 40° Northeast 232 267 11,600 -1,317 Descending Denver Center
Thu 08:45:49 PM 39.8422 -104.9592 57° Northeast 200 230 9,700 -1,644 Descending Denver Center
Thu 08:47:03 PM 39.8417 -104.8919 91° East 185 213 7,900 -1,459 Descending Denver Center

Login

Don't have an account? Register now (free) for customized features, flight alerts, and more!